Melbourne, United Kingdom
Current Conditions -  °F | °C
As of 1:20 PM on Thursday 18 Dec 2014 (Local Time) from EGNX Reporting Station
Broken Clouds Broken Clouds  
Wind Chill: 57°   Ceiling: 1800
Heat Index: 57°   Visibility: 6mi
Dew Point: 50°   Wind: 23mph
Humidity: 77%   Direction: 230°SW
Pressure: 29.65"   Gusts: 35mph
Location:  52.82°N, 1.43°W
Report Text: EGNX 181320Z 23020G30KT 9999 BKN018 14/10 Q1004
Loading
Personal Weather Stations






























Interactive Weather Map New forecast layout! Learn more

10-Day Weather Forecast

Advertisements
Track Severe Weather on mobile